sensor_id;sensor_type;location;lat;lon;timestamp;P1;P2;P0
79317;PMS7003;68779;50.036;19.964;2024-01-15T00:28:06;5;4;4
79317;PMS7003;68779;50.036;19.964;2024-01-15T01:28:50;4;2;2
79317;PMS7003;68779;50.036;19.964;2024-01-15T01:59:04;2;1;1
79317;PMS7003;68779;50.036;19.964;2024-01-15T02:29:20;2;2;1
79317;PMS7003;68779;50.036;19.964;2024-01-15T02:59:34;1;1;1
79317;PMS7003;68779;50.036;19.964;2024-01-15T03:29:48;1;1;1
79317;PMS7003;68779;50.036;19.964;2024-01-15T04:00:02;2;1;0
79317;PMS7003;68779;50.036;19.964;2024-01-15T04:30:16;0;0;0
79317;PMS7003;68779;50.036;19.964;2024-01-15T05:00:30;0;0;0
79317;PMS7003;68779;50.036;19.964;2024-01-15T05:30:44;0;0;0
79317;PMS7003;68779;50.036;19.964;2024-01-15T06:00:57;1;0;0
79317;PMS7003;68779;50.036;19.964;2024-01-15T06:31:14;1;0;0
79317;PMS7003;68779;50.036;19.964;2024-01-15T07:01:29;1;1;1
79317;PMS7003;68779;50.036;19.964;2024-01-15T07:31:51;2;2;1
79317;PMS7003;68779;50.036;19.964;2024-01-15T08:02:06;3;3;2
79317;PMS7003;68779;50.036;19.964;2024-01-15T08:32:20;4;3;3
79317;PMS7003;68779;50.036;19.964;2024-01-15T09:02:34;5;5;4
79317;PMS7003;68779;50.036;19.964;2024-01-15T09:32:51;5;5;4
79317;PMS7003;68779;50.036;19.964;2024-01-15T10:03:07;7;6;4
79317;PMS7003;68779;50.036;19.964;2024-01-15T10:33:27;7;7;4
79317;PMS7003;68779;50.036;19.964;2024-01-15T11:03:42;7;5;4
79317;PMS7003;68779;50.036;19.964;2024-01-15T11:33:56;6;6;4
79317;PMS7003;68779;50.036;19.964;2024-01-15T12:04:22;7;5;4
79317;PMS7003;68779;50.036;19.964;2024-01-15T12:34:39;6;5;4
79317;PMS7003;68779;50.036;19.964;2024-01-15T13:04:56;6;5;4
79317;PMS7003;68779;50.036;19.964;2024-01-15T13:35:13;8;7;5
79317;PMS7003;68779;50.036;19.964;2024-01-15T14:05:29;4;4;3
79317;PMS7003;68779;50.036;19.964;2024-01-15T14:35:43;5;4;3
79317;PMS7003;68779;50.036;19.964;2024-01-15T15:05:57;5;5;3
79317;PMS7003;68779;50.036;19.964;2024-01-15T15:36:11;4;3;2
79317;PMS7003;68779;50.036;19.964;2024-01-15T16:06:27;8;4;3
79317;PMS7003;68779;50.036;19.964;2024-01-15T16:36:42;6;5;4
79317;PMS7003;68779;50.036;19.964;2024-01-15T17:06:59;4;4;3
79317;PMS7003;68779;50.036;19.964;2024-01-15T17:37:12;7;6;5
79317;PMS7003;68779;50.036;19.964;2024-01-15T18:24:41;8;8;6
79317;PMS7003;68779;50.036;19.964;2024-01-15T18:54:58;8;7;5
79317;PMS7003;68779;50.036;19.964;2024-01-15T19:55:34;5;5;3
79317;PMS7003;68779;50.036;19.964;2024-01-15T20:25:48;5;4;3
79317;PMS7003;68779;50.036;19.964;2024-01-15T20:56:03;6;5;3
79317;PMS7003;68779;50.036;19.964;2024-01-15T21:56:45;6;6;4
79317;PMS7003;68779;50.036;19.964;2024-01-15T22:26:59;4;4;2
79317;PMS7003;68779;50.036;19.964;2024-01-15T22:57:13;3;3;2
79317;PMS7003;68779;50.036;19.964;2024-01-15T23:27:26;3;2;1
79317;PMS7003;68779;50.036;19.964;2024-01-15T23:57:41;5;4;3
